KPAN

Payson Airport

Payson, Arizona, USA
METAR KPAN 182335Z AUTO 20006KT 10SM FEW060 25/15 A3019 RMK AO2
Observed Flight Rules
Aug-18 @ 23:35 UTC (11 minutes ago) Visual Flight Rules
Wind Visibility Clouds
200° at 6 knots 10 miles
  • Few at 6,000' AGL
Temperatures Readings
Current 25°C / 77°F
Dewpoint 15°C / 59°F
Humidity 54%
Altimeter 30.19" Hg
Pressure 1022 hPa
Elevation 1572
METAR KPAN 182335Z AUTO 20006KT 10SM FEW060 25/15 A3019 RMK AO2
Observed Flight Rules
Aug-18 @ 23:35 UTC
(11 minutes ago)
VFR
Wind Visibility
200° at 6 knots 10 miles
Clouds
  • Few at 6,000' AGL
Temperature Dewpoint
25°C / 77°F 15°C / 59°F
Humidity Altimeter Pressure
54% 30.19" Hg 1022 hPa